Station Historical Data
Daily Summary for March 18, 2012 Units:  Both    English   Metric
« Previous Day
Next Day »
Daily Weekly Monthly Yearly Custom
  High: Low: Average:
Temperature: 80.7 °F /  27.1 °C 60.7 °F /  15.9 °C 70.1 °F /  21.2 °C
Dew Point: 63.5 °F /  17.5 °C 50.4 °F /  10.2 °C 56.1 °F /  13.4 °C
Humidity: 83% 38% 63%
Wind Speed: 11.0mph /  17.7km/h - 3mph /  4.8km/h
Wind Gust: 14.0mph /  22.5km/h - -
Wind- - SSE
Pressure: 30.20 in /  1022.6 hPa 30.06 in /  1017.8 hPa -
Precipitation: 0.00 in /  0 mm    
Historical Graphs
 
 
Tabular Data for March 18, 2012
Time Temperature Dew Point Pressure Wind Wind Speed Wind Gust Humidity Rainfall Rate (Hourly) Conditions
00:00 67.1 °F /  19.5 °C 58.9 °F /  14.9 °C 30.10in /  1019.2hPa East 2.0mph /  3.2km/h 2.0mph /  3.2km/h 75% 0.00in /  0mm
00:05 66.8 °F /  19.3 °C 59.0 °F /  15 °C 30.11in /  1019.5hPa East 1.0mph /  1.6km/h 2.0mph /  3.2km/h 76% 0.00in /  0mm
00:10 66.4 °F /  19.1 °C 59.0 °F /  15 °C 30.11in /  1019.5hPa Calm   1.0mph /  1.6km/h 77% 0.00in /  0mm
00:16 66.2 °F /  19 °C 58.8 °F /  14.9 °C 30.11in /  1019.5hPa East 1.0mph /  1.6km/h 2.0mph /  3.2km/h 77% 0.00in /  0mm
00:20 66.2 °F /  19 °C 58.8 °F /  14.9 °C 30.11in /  1019.5hPa East 2.0mph /  3.2km/h 3.0mph /  4.8km/h 77% 0.00in /  0mm
00:26 66.5 °F /  19.2 °C 58.7 °F /  14.8 °C 30.11in /  1019.5hPa ESE 2.0mph /  3.2km/h 3.0mph /  4.8km/h 76% 0.00in /  0mm
00:31 66.0 °F /  18.9 °C 58.2 °F /  14.6 °C 30.11in /  1019.5hPa Calm   2.0mph /  3.2km/h 76% 0.00in /  0mm
00:36 65.1 °F /  18.4 °C 58.1 °F /  14.5 °C 30.11in /  1019.5hPa Calm   1.0mph /  1.6km/h 78% 0.00in /  0mm
00:41 64.7 °F /  18.2 °C 58.0 °F /  14.4 °C 30.11in /  1019.5hPa Calm   2.0mph /  3.2km/h 79% 0.00in /  0mm
00:46 65.0 °F /  18.3 °C 58.3 °F /  14.6 °C 30.11in /  1019.5hPa East 1.0mph /  1.6km/h 1.0mph /  1.6km/h 79% 0.00in /  0mm
00:51 65.2 °F /  18.4 °C 58.2 °F /  14.6 °C 30.11in /  1019.5hPa Calm   1.0mph /  1.6km/h 78% 0.00in /  0mm
00:56 65.0 °F /  18.3 °C 58.3 °F /  14.6 °C 30.11in /  1019.5hPa Calm     79% 0.00in /  0mm
01:01 64.8 °F /  18.2 °C 58.1 °F /  14.5 °C 30.11in /  1019.5hPa ESE 1.0mph /  1.6km/h 1.0mph /  1.6km/h 79% 0.00in /  0mm
01:06 64.7 °F /  18.2 °C 58.0 °F /  14.4 °C 30.11in /  1019.5hPa ESE 1.0mph /  1.6km/h 1.0mph /  1.6km/h 79% 0.00in /  0mm
01:11 64.5 °F /  18.1 °C 57.8 °F /  14.3 °C 30.11in /  1019.5hPa Calm     79% 0.00in /  0mm
01:16 64.5 °F /  18.1 °C 57.8 °F /  14.3 °C 30.11in /  1019.5hPa Calm     79% 0.00in /  0mm
01:21 64.3 °F /  17.9 °C 57.7 °F /  14.3 °C 30.11in /  1019.5hPa Calm     79% 0.00in /  0mm
01:26 64.1 °F /  17.8 °C 57.8 °F /  14.3 °C 30.11in /  1019.5hPa Calm   1.0mph /  1.6km/h 80% 0.00in /  0mm
01:31 64.5 °F /  18.1 °C 58.2 °F /  14.6 °C 30.11in /  1019.5hPa SSE 1.0mph /  1.6km/h 1.0mph /  1.6km/h 80% 0.00in /  0mm
01:36 65.0 °F /  18.3 °C 58.0 °F /  14.4 °C 30.11in /  1019.5hPa SE 1.0mph /  1.6km/h 2.0mph /  3.2km/h 78% 0.00in /  0mm
01:41 65.2 °F /  18.4 °C 57.8 °F /  14.3 °C 30.10in /  1019.2hPa SSE 1.0mph /  1.6km/h 3.0mph /  4.8km/h 77% 0.00in /  0mm
01:46 65.4 °F /  18.6 °C 57.7 °F /  14.3 °C 30.11in /  1019.5hPa SE 2.0mph /  3.2km/h 4.0mph /  6.4km/h 76% 0.00in /  0mm
01:51 66.0 °F /  18.9 °C 57.5 °F /  14.2 °C 30.10in /  1019.2hPa SSE 2.0mph /  3.2km/h 4.0mph /  6.4km/h 74% 0.00in /  0mm
01:56 66.6 °F /  19.2 °C 57.3 °F /  14.1 °C 30.11in /  1019.5hPa SSE 3.0mph /  4.8km/h 3.0mph /  4.8km/h 72% 0.00in /  0mm
02:01 66.6 °F /  19.2 °C 57.3 °F /  14.1 °C 30.11in /  1019.5hPa SE 3.0mph /  4.8km/h 3.0mph /  4.8km/h 72% 0.00in /  0mm
02:06 66.4 °F /  19.1 °C 57.1 °F /  13.9 °C 30.11in /  1019.5hPa SSE 3.0mph /  4.8km/h 3.0mph /  4.8km/h 72% 0.00in /  0mm
02:11 66.2 °F /  19 °C 56.9 °F /  13.8 °C 30.11in /  1019.5hPa SSE 3.0mph /  4.8km/h 3.0mph /  4.8km/h 72% 0.00in /  0mm
02:16 66.4 °F /  19.1 °C 56.7 °F /  13.7 °C 30.11in /  1019.5hPa SE 2.0mph /  3.2km/h 4.0mph /  6.4km/h 71% 0.00in /  0mm
02:21 66.3 °F /  19.1 °C 56.6 °F /  13.7 °C 30.11in /  1019.5hPa SSE 3.0mph /  4.8km/h 3.0mph /  4.8km/h 71% 0.00in /  0mm
02:26 66.2 °F /  19 °C 56.5 °F /  13.6 °C 30.11in /  1019.5hPa SSE 2.0mph /  3.2km/h 3.0mph /  4.8km/h 71% 0.00in /  0mm
02:31 66.2 °F /  19 °C 56.5 °F /  13.6 °C 30.11in /  1019.5hPa SSE 2.0mph /  3.2km/h 3.0mph /  4.8km/h 71% 0.00in /  0mm
02:36 65.9 °F /  18.8 °C 56.6 °F /  13.7 °C 30.11in /  1019.5hPa South 1.0mph /  1.6km/h 2.0mph /  3.2km/h 72% 0.00in /  0mm
02:41 65.6 °F /  18.7 °C 56.3 °F /  13.5 °C 30.11in /  1019.5hPa South 2.0mph /  3.2km/h 2.0mph /  3.2km/h 72% 0.00in /  0mm
02:46 65.6 °F /  18.7 °C 56.3 °F /  13.5 °C 30.11in /  1019.5hPa SSE 2.0mph /  3.2km/h 3.0mph /  4.8km/h 72% 0.00in /  0mm
02:51 65.6 °F /  18.7 °C 56.3 °F /  13.5 °C 30.11in /  1019.5hPa South 2.0mph /  3.2km/h 5.0mph /  8km/h 72% 0.00in /  0mm
02:56 65.7 °F /  18.7 °C 56.4 °F /  13.6 °C 30.11in /  1019.5hPa SSE 2.0mph /  3.2km/h 3.0mph /  4.8km/h 72% 0.00in /  0mm
03:01 66.0 °F /  18.9 °C 56.3 °F /  13.5 °C 30.11in /  1019.5hPa South 2.0mph /  3.2km/h 4.0mph /  6.4km/h 71% 0.00in /  0mm
03:06 66.1 °F /  18.9 °C 56.4 °F /  13.6 °C 30.11in /  1019.5hPa SW 2.0mph /  3.2km/h 3.0mph /  4.8km/h 71% 0.00in /  0mm
03:11 66.0 °F /  18.9 °C 56.3 °F /  13.5 °C 30.11in /  1019.5hPa South 1.0mph /  1.6km/h 3.0mph /  4.8km/h 71% 0.00in /  0mm
03:16 65.8 °F /  18.8 °C 56.2 °F /  13.4 °C 30.11in /  1019.5hPa SSW 1.0mph /  1.6km/h 3.0mph /  4.8km/h 71% 0.00in /  0mm
03:21 65.9 °F /  18.8 °C 56.2 °F /  13.4 °C 30.11in /  1019.5hPa South 3.0mph /  4.8km/h 3.0mph /  4.8km/h 71% 0.00in /  0mm
03:26 66.1 °F /  18.9 °C 56.0 °F /  13.3 °C 30.10in /  1019.2hPa SSE 2.0mph /  3.2km/h 4.0mph /  6.4km/h 70% 0.00in /  0mm
03:31 66.0 °F /  18.9 °C 56.0 °F /  13.3 °C 30.11in /  1019.5hPa SSE 2.0mph /  3.2km/h 3.0mph /  4.8km/h 70% 0.00in /  0mm
03:36 66.0 °F /  18.9 °C 56.0 °F /  13.3 °C 30.11in /  1019.5hPa SSE 3.0mph /  4.8km/h 4.0mph /  6.4km/h 70% 0.00in /  0mm
03:42 66.0 °F /  18.9 °C 56.0 °F /  13.3 °C 30.11in /  1019.5hPa SSE 2.0mph /  3.2km/h 4.0mph /  6.4km/h 70% 0.00in /  0mm
03:47 65.9 °F /  18.8 °C 55.8 °F /  13.2 °C 30.10in /  1019.2hPa SSE 2.0mph /  3.2km/h 4.0mph /  6.4km/h 70% 0.00in /  0mm
03:52 65.4 °F /  18.6 °C 56.2 °F /  13.4 °C 30.10in /  1019.2hPa SE 2.0mph /  3.2km/h 3.0mph /  4.8km/h 72% 0.00in /  0mm
03:57 64.7 °F /  18.2 °C 55.9 °F /  13.3 °C 30.10in /  1019.2hPa SSE 2.0mph /  3.2km/h 2.0mph /  3.2km/h 73% 0.00in /  0mm
04:02 64.3 °F /  17.9 °C 55.8 °F /  13.2 °C 30.10in /  1019.2hPa SSE 1.0mph /  1.6km/h 2.0mph /  3.2km/h 74% 0.00in /  0mm
04:07 64.1 °F /  17.8 °C 56.0 °F /  13.3 °C 30.10in /  1019.2hPa SSE 1.0mph /  1.6km/h 2.0mph /  3.2km/h 75% 0.00in /  0mm
04:12 64.2 °F /  17.9 °C 56.1 °F /  13.4 °C 30.10in /  1019.2hPa SE 1.0mph /  1.6km/h 1.0mph /  1.6km/h 75% 0.00in /  0mm
04:17 64.1 °F /  17.8 °C 56.0 °F /  13.3 °C 30.10in /  1019.2hPa SE 1.0mph /  1.6km/h 2.0mph /  3.2km/h 75% 0.00in /  0mm
04:22 63.9 °F /  17.7 °C 56.2 °F /  13.4 °C 30.10in /  1019.2hPa SE 1.0mph /  1.6km/h 1.0mph /  1.6km/h 76% 0.00in /  0mm
04:27 63.7 °F /  17.6 °C 56.0 °F /  13.3 °C 30.10in /  1019.2hPa SE 1.0mph /  1.6km/h 1.0mph /  1.6km/h 76% 0.00in /  0mm
04:32 63.5 °F /  17.5 °C 55.8 °F /  13.2 °C 30.10in /  1019.2hPa SSE 1.0mph /  1.6km/h 1.0mph /  1.6km/h 76% 0.00in /  0mm
04:37 63.4 °F /  17.4 °C 56.1 °F /  13.4 °C 30.10in /  1019.2hPa SSE 1.0mph /  1.6km/h 1.0mph /  1.6km/h 77% 0.00in /  0mm
04:42 63.1 °F /  17.3 °C 55.8 °F /  13.2 °C 30.10in /  1019.2hPa SE 1.0mph /  1.6km/h 1.0mph /  1.6km/h 77% 0.00in /  0mm
04:47 62.7 °F /  17.1 °C 55.8 °F /  13.2 °C 30.09in /  1018.8hPa SSE 2.0mph /  3.2km/h 2.0mph /  3.2km/h 78% 0.00in /  0mm
04:52 62.8 °F /  17.1 °C 55.8 °F /  13.2 °C 30.09in /  1018.8hPa SSE 2.0mph /  3.2km/h 3.0mph /  4.8km/h 78% 0.00in /  0mm
04:57 63.0 °F /  17.2 °C 55.7 °F /  13.2 °C 30.09in /  1018.8hPa SSE 2.0mph /  3.2km/h 2.0mph /  3.2km/h 77% 0.00in /  0mm
05:02 63.1 °F /  17.3 °C 55.8 °F /  13.2 °C 30.09in /  1018.8hPa SSE 1.0mph /  1.6km/h 2.0mph /  3.2km/h 77% 0.00in /  0mm
05:07 62.9 °F /  17.2 °C 55.6 °F /  13.1 °C 30.09in /  1018.8hPa SE 2.0mph /  3.2km/h 2.0mph /  3.2km/h 77% 0.00in /  0mm
05:12 62.8 °F /  17.1 °C 55.5 °F /  13.1 °C 30.09in /  1018.8hPa SE 1.0mph /  1.6km/h 2.0mph /  3.2km/h 77% 0.00in /  0mm
05:17 62.6 °F /  17 °C 55.7 °F /  13.2 °C 30.09in /  1018.8hPa SSE 2.0mph /  3.2km/h 2.0mph /  3.2km/h 78% 0.00in /  0mm
05:22 62.4 °F /  16.9 °C 55.5 °F /  13.1 °C 30.09in /  1018.8hPa SSE 3.0mph /  4.8km/h 3.0mph /  4.8km/h 78% 0.00in /  0mm
05:27 62.2 °F /  16.8 °C 55.3 °F /  12.9 °C 30.09in /  1018.8hPa SSE 2.0mph /  3.2km/h 3.0mph /  4.8km/h 78% 0.00in /  0mm
05:32 61.8 °F /  16.6 °C 55.2 °F /  12.9 °C 30.10in /  1019.2hPa SSE 5.0mph /  8km/h 6.0mph /  9.7km/h 79% 0.00in /  0mm
05:37 61.7 °F /  16.5 °C 55.1 °F /  12.8 °C 30.10in /  1019.2hPa SSE 3.0mph /  4.8km/h 5.0mph /  8km/h 79% 0.00in /  0mm
05:42 62.0 °F /  16.7 °C 55.4 °F /  13 °C 30.10in /  1019.2hPa South 5.0mph /  8km/h 5.0mph /  8km/h 79% 0.00in /  0mm
05:47 61.9 °F /  16.6 °C 55.3 °F /  12.9 °C 30.10in /  1019.2hPa SSE 4.0mph /  6.4km/h 5.0mph /  8km/h 79% 0.00in /  0mm
05:52 61.8 °F /  16.6 °C 55.6 °F /  13.1 °C 30.10in /  1019.2hPa SSE 2.0mph /  3.2km/h 3.0mph /  4.8km/h 80% 0.00in /  0mm
05:57 61.7 °F /  16.5 °C 55.5 °F /  13.1 °C 30.10in /  1019.2hPa SSE 2.0mph /  3.2km/h 4.0mph /  6.4km/h 80% 0.00in /  0mm
06:02 61.8 °F /  16.6 °C 55.2 °F /  12.9 °C 30.10in /  1019.2hPa SSE 1.0mph /  1.6km/h 2.0mph /  3.2km/h 79% 0.00in /  0mm
06:07 62.1 °F /  16.7 °C 55.5 °F /  13.1 °C 30.11in /  1019.5hPa SE 1.0mph /  1.6km/h 2.0mph /  3.2km/h 79% 0.00in /  0mm
06:12 61.8 °F /  16.6 °C 55.2 °F /  12.9 °C 30.11in /  1019.5hPa SE 1.0mph /  1.6km/h 1.0mph /  1.6km/h 79% 0.00in /  0mm
06:17 61.4 °F /  16.3 °C 55.2 °F /  12.9 °C 30.11in /  1019.5hPa SSE 2.0mph /  3.2km/h 2.0mph /  3.2km/h 80% 0.00in /  0mm
06:22 61.2 °F /  16.2 °C 55.0 °F /  12.8 °C 30.11in /  1019.5hPa SE 2.0mph /  3.2km/h 3.0mph /  4.8km/h 80% 0.00in /  0mm
06:27 61.2 °F /  16.2 °C 55.3 °F /  12.9 °C 30.11in /  1019.5hPa SE 2.0mph /  3.2km/h 3.0mph /  4.8km/h 81% 0.00in /  0mm
06:32 61.4 °F /  16.3 °C 55.5 °F /  13.1 °C 30.11in /  1019.5hPa SE 2.0mph /  3.2km/h 3.0mph /  4.8km/h 81% 0.00in /  0mm
06:38 61.4 °F /  16.3 °C 55.2 °F /  12.9 °C 30.12in /  1019.9hPa SSE 3.0mph /  4.8km/h 4.0mph /  6.4km/h 80% 0.00in /  0mm
06:43 61.4 °F /  16.3 °C 55.2 °F /  12.9 °C 30.12in /  1019.9hPa SE 3.0mph /  4.8km/h 4.0mph /  6.4km/h 80% 0.00in /  0mm
06:48 61.6 °F /  16.4 °C 55.4 °F /  13 °C 30.12in /  1019.9hPa SE 2.0mph /  3.2km/h 3.0mph /  4.8km/h 80% 0.00in /  0mm
06:53 61.8 °F /  16.6 °C 55.6 °F /  13.1 °C 30.11in /  1019.5hPa SE 3.0mph /  4.8km/h 5.0mph /  8km/h 80% 0.00in /  0mm
06:58 62.0 °F /  16.7 °C 55.4 °F /  13 °C 30.12in /  1019.9hPa SSE 2.0mph /  3.2km/h 3.0mph /  4.8km/h 79% 0.00in /  0mm
07:03 61.9 °F /  16.6 °C 55.3 °F /  12.9 °C 30.12in /  1019.9hPa SSE 2.0mph /  3.2km/h 2.0mph /  3.2km/h 79% 0.00in /  0mm
07:08 61.9 °F /  16.6 °C 55.3 °F /  12.9 °C 30.12in /  1019.9hPa SE 2.0mph /  3.2km/h 2.0mph /  3.2km/h 79% 0.00in /  0mm
07:13 61.5 °F /  16.4 °C 55.3 °F /  12.9 °C 30.12in /  1019.9hPa SE 2.0mph /  3.2km/h 2.0mph /  3.2km/h 80% 0.00in /  0mm
07:18 61.2 °F /  16.2 °C 55.3 °F /  12.9 °C 30.13in /  1020.2hPa SSE 2.0mph /  3.2km/h 2.0mph /  3.2km/h 81% 0.00in /  0mm
07:23 61.1 °F /  16.2 °C 55.2 °F /  12.9 °C 30.13in /  1020.2hPa SSE 2.0mph /  3.2km/h 3.0mph /  4.8km/h 81% 0.00in /  0mm
07:28 61.2 °F /  16.2 °C 55.3 °F /  12.9 °C 30.13in /  1020.2hPa South 3.0mph /  4.8km/h 4.0mph /  6.4km/h 81% 0.00in /  0mm
07:33 61.2 °F /  16.2 °C 55.3 °F /  12.9 °C 30.13in /  1020.2hPa SE 1.0mph /  1.6km/h 2.0mph /  3.2km/h 81% 0.00in /  0mm
07:38 61.1 °F /  16.2 °C 55.6 °F /  13.1 °C 30.13in /  1020.2hPa SE 2.0mph /  3.2km/h 3.0mph /  4.8km/h 82% 0.00in /  0mm
07:43 61.2 °F /  16.2 °C 55.3 °F /  12.9 °C 30.14in /  1020.5hPa SSE 2.0mph /  3.2km/h 3.0mph /  4.8km/h 81% 0.00in /  0mm
07:48 60.9 °F /  16.1 °C 55.4 °F /  13 °C 30.14in /  1020.5hPa SSE 1.0mph /  1.6km/h 3.0mph /  4.8km/h 82% 0.00in /  0mm
07:53 60.7 °F /  15.9 °C 55.5 °F /  13.1 °C 30.14in /  1020.5hPa SE 2.0mph /  3.2km/h 4.0mph /  6.4km/h 83% 0.00in /  0mm
07:58 61.2 °F /  16.2 °C 55.7 °F /  13.2 °C 30.14in /  1020.5hPa SSE 2.0mph /  3.2km/h 3.0mph /  4.8km/h 82% 0.00in /  0mm
08:03 61.4 °F /  16.3 °C 55.5 °F /  13.1 °C 30.14in /  1020.5hPa SSE 1.0mph /  1.6km/h 5.0mph /  8km/h 81% 0.00in /  0mm
08:08 61.4 °F /  16.3 °C 55.5 °F /  13.1 °C 30.14in /  1020.5hPa SSE 2.0mph /  3.2km/h 4.0mph /  6.4km/h 81% 0.00in /  0mm
08:13 61.5 °F /  16.4 °C 55.6 °F /  13.1 °C 30.14in /  1020.5hPa SSE 1.0mph /  1.6km/h 2.0mph /  3.2km/h 81% 0.00in /  0mm
08:18 61.8 °F /  16.6 °C 55.9 °F /  13.3 °C 30.15in /  1020.9hPa SE 1.0mph /  1.6km/h 2.0mph /  3.2km/h 81% 0.00in /  0mm
08:23 62.2 °F /  16.8 °C 56.0 °F /  13.3 °C 30.15in /  1020.9hPa SE 1.0mph /  1.6km/h 2.0mph /  3.2km/h 80% 0.00in /  0mm
08:28 62.7 °F /  17.1 °C 56.1 °F /  13.4 °C 30.15in /  1020.9hPa Calm   1.0mph /  1.6km/h 79% 0.00in /  0mm
08:33 63.4 °F /  17.4 °C 56.4 °F /  13.6 °C 30.15in /  1020.9hPa Calm     78% 0.00in /  0mm
08:38 64.3 °F /  17.9 °C 57.0 °F /  13.9 °C 30.16in /  1021.2hPa Calm     77% 0.00in /  0mm
08:43 64.7 °F /  18.2 °C 57.0 °F /  13.9 °C 30.16in /  1021.2hPa Calm     76% 0.00in /  0mm
08:49 64.6 °F /  18.1 °C 56.9 °F /  13.8 °C 30.16in /  1021.2hPa Calm     76% 0.00in /  0mm
08:54 64.9 °F /  18.3 °C 57.5 °F /  14.2 °C 30.16in /  1021.2hPa Calm     77% 0.00in /  0mm
08:59 65.4 °F /  18.6 °C 57.7 °F /  14.3 °C 30.16in /  1021.2hPa Calm     76% 0.00in /  0mm
09:04 66.1 °F /  18.9 °C 58.0 °F /  14.4 °C 30.17in /  1021.6hPa Calm     75% 0.00in /  0mm
09:09 66.3 °F /  19.1 °C 58.9 °F /  14.9 °C 30.17in /  1021.6hPa Calm     77% 0.00in /  0mm
09:14 66.0 °F /  18.9 °C 58.6 °F /  14.8 °C 30.17in /  1021.6hPa ESE 1.0mph /  1.6km/h 1.0mph /  1.6km/h 77% 0.00in /  0mm
09:19 65.9 °F /  18.8 °C 58.5 °F /  14.7 °C 30.17in /  1021.6hPa Calm   1.0mph /  1.6km/h 77% 0.00in /  0mm
09:24 65.8 °F /  18.8 °C 57.7 °F /  14.3 °C 30.17in /  1021.6hPa SSE 1.0mph /  1.6km/h 1.0mph /  1.6km/h 75% 0.00in /  0mm
09:29 65.7 °F /  18.7 °C 57.9 °F /  14.4 °C 30.18in /  1021.9hPa SSE 1.0mph /  1.6km/h 1.0mph /  1.6km/h 76% 0.00in /  0mm
09:34 65.4 °F /  18.6 °C 58.0 °F /  14.4 °C 30.18in /  1021.9hPa ESE 2.0mph /  3.2km/h 2.0mph /  3.2km/h 77% 0.00in /  0mm
09:39 65.2 °F /  18.4 °C 57.5 °F /  14.2 °C 30.18in /  1021.9hPa SE 1.0mph /  1.6km/h 4.0mph /  6.4km/h 76% 0.00in /  0mm
09:44 65.5 °F /  18.6 °C 58.1 °F /  14.5 °C 30.18in /  1021.9hPa SE 2.0mph /  3.2km/h 3.0mph /  4.8km/h 77% 0.00in /  0mm
09:49 66.0 °F /  18.9 °C 58.2 °F /  14.6 °C 30.18in /  1021.9hPa SE 3.0mph /  4.8km/h 5.0mph /  8km/h 76% 0.00in /  0mm
09:54 66.5 °F /  19.2 °C 58.3 °F /  14.6 °C 30.18in /  1021.9hPa SSE 2.0mph /  3.2km/h 4.0mph /  6.4km/h 75% 0.00in /  0mm
09:59 66.9 °F /  19.4 °C 58.3 °F /  14.6 °C 30.18in /  1021.9hPa SSE 4.0mph /  6.4km/h 5.0mph /  8km/h 74% 0.00in /  0mm
10:04 67.3 °F /  19.6 °C 59.1 °F /  15.1 °C 30.18in /  1021.9hPa SSE 3.0mph /  4.8km/h 5.0mph /  8km/h 75% 0.00in /  0mm
10:10 67.9 °F /  19.9 °C 59.3 °F /  15.2 °C 30.18in /  1021.9hPa SE 3.0mph /  4.8km/h 5.0mph /  8km/h 74% 0.00in /  0mm
10:15 68.4 °F /  20.2 °C 59.4 °F /  15.2 °C 30.18in /  1021.9hPa SSE 3.0mph /  4.8km/h 4.0mph /  6.4km/h 73% 0.00in /  0mm
10:20 68.5 °F /  20.3 °C 58.7 °F /  14.8 °C 30.19in /  1022.2hPa SSE 4.0mph /  6.4km/h 5.0mph /  8km/h 71% 0.00in /  0mm
10:25 68.5 °F /  20.3 °C 58.7 °F /  14.8 °C 30.19in /  1022.2hPa SSE 3.0mph /  4.8km/h 7.0mph /  11.3km/h 71% 0.00in /  0mm
10:30 68.8 °F /  20.4 °C 59.0 °F /  15 °C 30.19in /  1022.2hPa SE 3.0mph /  4.8km/h 6.0mph /  9.7km/h 71% 0.00in /  0mm
10:35 69.0 °F /  20.6 °C 58.8 °F /  14.9 °C 30.19in /  1022.2hPa SSE 4.0mph /  6.4km/h 5.0mph /  8km/h 70% 0.00in /  0mm
10:40 69.5 °F /  20.8 °C 59.7 °F /  15.4 °C 30.19in /  1022.2hPa SSE 5.0mph /  8km/h 5.0mph /  8km/h 71% 0.00in /  0mm
10:45 69.9 °F /  21.1 °C 59.3 °F /  15.2 °C 30.19in /  1022.2hPa SE 3.0mph /  4.8km/h 6.0mph /  9.7km/h 69% 0.00in /  0mm
10:50 70.1 °F /  21.2 °C 59.5 °F /  15.3 °C 30.19in /  1022.2hPa SSE 2.0mph /  3.2km/h 5.0mph /  8km/h 69% 0.00in /  0mm
10:55 70.5 °F /  21.4 °C 59.8 °F /  15.4 °C 30.20in /  1022.6hPa WSW 4.0mph /  6.4km/h 4.0mph /  6.4km/h 69% 0.00in /  0mm
11:00 71.0 °F /  21.7 °C 60.3 °F /  15.7 °C 30.20in /  1022.6hPa South 2.0mph /  3.2km/h 4.0mph /  6.4km/h 69% 0.00in /  0mm
11:05 71.4 °F /  21.9 °C 60.3 °F /  15.7 °C 30.20in /  1022.6hPa WSW 4.0mph /  6.4km/h 5.0mph /  8km/h 68% 0.00in /  0mm
11:10 71.3 °F /  21.8 °C 60.2 °F /  15.7 °C 30.20in /  1022.6hPa SSE 3.0mph /  4.8km/h 4.0mph /  6.4km/h 68% 0.00in /  0mm
11:15 71.5 °F /  21.9 °C 60.4 °F /  15.8 °C 30.20in /  1022.6hPa West 3.0mph /  4.8km/h 5.0mph /  8km/h 68% 0.00in /  0mm
11:20 71.9 °F /  22.2 °C 60.4 °F /  15.8 °C 30.20in /  1022.6hPa SW 3.0mph /  4.8km/h 4.0mph /  6.4km/h 67% 0.00in /  0mm
11:25 72.3 °F /  22.4 °C 61.2 °F /  16.2 °C 30.20in /  1022.6hPa SW 4.0mph /  6.4km/h 4.0mph /  6.4km/h 68% 0.00in /  0mm
11:30 72.9 °F /  22.7 °C 61.7 °F /  16.5 °C 30.20in /  1022.6hPa SW 2.0mph /  3.2km/h 4.0mph /  6.4km/h 68% 0.00in /  0mm
11:35 73.3 °F /  22.9 °C 61.7 °F /  16.5 °C 30.20in /  1022.6hPa SSE 6.0mph /  9.7km/h 6.0mph /  9.7km/h 67% 0.00in /  0mm
11:36 73.3 °F /  22.9 °C 61.7 °F /  16.5 °C 30.20in /  1022.6hPa SSE 4.0mph /  6.4km/h 6.0mph /  9.7km/h 67% 0.00in /  0mm
11:41 73.4 °F /  23 °C 61.8 °F /  16.6 °C 30.20in /  1022.6hPa South 5.0mph /  8km/h 5.0mph /  8km/h 67% 0.00in /  0mm
11:46 73.8 °F /  23.2 °C 61.3 °F /  16.3 °C 30.20in /  1022.6hPa South 2.0mph /  3.2km/h 6.0mph /  9.7km/h 65% 0.00in /  0mm
11:51 74.2 °F /  23.4 °C 62.1 °F /  16.7 °C 30.20in /  1022.6hPa WSW 2.0mph /  3.2km/h 3.0mph /  4.8km/h 66% 0.00in /  0mm
11:56 74.2 °F /  23.4 °C 62.1 °F /  16.7 °C 30.19in /  1022.2hPa West 2.0mph /  3.2km/h 4.0mph /  6.4km/h 66% 0.00in /  0mm
12:01 74.3 °F /  23.5 °C 61.8 °F /  16.6 °C 30.19in /  1022.2hPa ESE 3.0mph /  4.8km/h 5.0mph /  8km/h 65% 0.00in /  0mm
12:06 74.6 °F /  23.7 °C 63.3 °F /  17.4 °C 30.19in /  1022.2hPa South 3.0mph /  4.8km/h 4.0mph /  6.4km/h 68% 0.00in /  0mm
12:11 75.1 °F /  23.9 °C 63.0 °F /  17.2 °C 30.19in /  1022.2hPa SSW 2.0mph /  3.2km/h 3.0mph /  4.8km/h 66% 0.00in /  0mm
12:16 75.4 °F /  24.1 °C 61.9 °F /  16.6 °C 30.19in /  1022.2hPa South 2.0mph /  3.2km/h 5.0mph /  8km/h 63% 0.00in /  0mm
12:21 75.8 °F /  24.3 °C 63.2 °F /  17.3 °C 30.19in /  1022.2hPa ESE 2.0mph /  3.2km/h 4.0mph /  6.4km/h 65% 0.00in /  0mm
12:26 75.8 °F /  24.3 °C 62.3 °F /  16.8 °C 30.18in /  1021.9hPa SSE 4.0mph /  6.4km/h 7.0mph /  11.3km/h 63% 0.00in /  0mm
12:31 75.7 °F /  24.3 °C 63.5 °F /  17.5 °C 30.18in /  1021.9hPa SSE 3.0mph /  4.8km/h 4.0mph /  6.4km/h 66% 0.00in /  0mm
12:36 75.9 °F /  24.4 °C 63.3 °F /  17.4 °C 30.18in /  1021.9hPa WSW 4.0mph /  6.4km/h 7.0mph /  11.3km/h 65% 0.00in /  0mm
12:41 76.0 °F /  24.4 °C 63.0 °F /  17.2 °C 30.18in /  1021.9hPa SSE 5.0mph /  8km/h 6.0mph /  9.7km/h 64% 0.00in /  0mm
12:46 76.1 °F /  24.5 °C 61.7 °F /  16.5 °C 30.18in /  1021.9hPa WSW 3.0mph /  4.8km/h 6.0mph /  9.7km/h 61% 0.00in /  0mm
12:51 76.1 °F /  24.5 °C 63.0 °F /  17.2 °C 30.18in /  1021.9hPa East 4.0mph /  6.4km/h 4.0mph /  6.4km/h 64% 0.00in /  0mm
12:56 76.5 °F /  24.7 °C 61.6 °F /  16.4 °C 30.17in /  1021.6hPa SSW 2.0mph /  3.2km/h 5.0mph /  8km/h 60% 0.00in /  0mm
13:01 76.6 °F /  24.8 °C 61.7 °F /  16.5 °C 30.17in /  1021.6hPa NE 2.0mph /  3.2km/h 8.0mph /  12.9km/h 60% 0.00in /  0mm
13:06 76.5 °F /  24.7 °C 63.0 °F /  17.2 °C 30.17in /  1021.6hPa SE 5.0mph /  8km/h 8.0mph /  12.9km/h 63% 0.00in /  0mm
13:12 76.5 °F /  24.7 °C 61.6 °F /  16.4 °C 30.17in /  1021.6hPa SE 5.0mph /  8km/h 6.0mph /  9.7km/h 60% 0.00in /  0mm
13:17 76.5 °F /  24.7 °C 59.2 °F /  15.1 °C 30.17in /  1021.6hPa SSE 5.0mph /  8km/h 7.0mph /  11.3km/h 55% 0.00in /  0mm
13:22 77.2 °F /  25.1 °C 59.8 °F /  15.4 °C 30.17in /  1021.6hPa SE 5.0mph /  8km/h 6.0mph /  9.7km/h 55% 0.00in /  0mm
13:27 77.3 °F /  25.2 °C 60.9 °F /  16.1 °C 30.16in /  1021.2hPa ESE 3.0mph /  4.8km/h 4.0mph /  6.4km/h 57% 0.00in /  0mm
13:32 77.2 °F /  25.1 °C 60.3 °F /  15.7 °C 30.16in /  1021.2hPa SE 5.0mph /  8km/h 5.0mph /  8km/h 56% 0.00in /  0mm
13:37 76.7 °F /  24.8 °C 59.3 °F /  15.2 °C 30.16in /  1021.2hPa ESE 5.0mph /  8km/h 9.0mph /  14.5km/h 55% 0.00in /  0mm
13:42 76.5 °F /  24.7 °C 59.7 °F /  15.4 °C 30.15in /  1020.9hPa ESE 3.0mph /  4.8km/h 5.0mph /  8km/h 56% 0.00in /  0mm
13:47 77.0 °F /  25 °C 60.1 °F /  15.6 °C 30.15in /  1020.9hPa South 6.0mph /  9.7km/h 9.0mph /  14.5km/h 56% 0.00in /  0mm
13:52 77.1 °F /  25.1 °C 60.2 °F /  15.7 °C 30.15in /  1020.9hPa SSE 2.0mph /  3.2km/h 6.0mph /  9.7km/h 56% 0.00in /  0mm
13:57 77.4 °F /  25.2 °C 60.0 °F /  15.6 °C 30.15in /  1020.9hPa ESE 3.0mph /  4.8km/h 8.0mph /  12.9km/h 55% 0.00in /  0mm
14:02 77.9 °F /  25.5 °C 60.5 °F /  15.8 °C 30.14in /  1020.5hPa ESE 5.0mph /  8km/h 7.0mph /  11.3km/h 55% 0.00in /  0mm
14:07 77.5 °F /  25.3 °C 60.1 °F /  15.6 °C 30.14in /  1020.5hPa ESE 8.0mph /  12.9km/h 8.0mph /  12.9km/h 55% 0.00in /  0mm
14:12 77.5 °F /  25.3 °C 61.1 °F /  16.2 °C 30.14in /  1020.5hPa SE 6.0mph /  9.7km/h 11.0mph /  17.7km/h 57% 0.00in /  0mm
14:17 77.0 °F /  25 °C 58.6 °F /  14.8 °C 30.13in /  1020.2hPa SE 7.0mph /  11.3km/h 11.0mph /  17.7km/h 53% 0.00in /  0mm
14:22 77.2 °F /  25.1 °C 59.3 °F /  15.2 °C 30.13in /  1020.2hPa SE 5.0mph /  8km/h 8.0mph /  12.9km/h 54% 0.00in /  0mm
14:27 77.4 °F /  25.2 °C 57.9 °F /  14.4 °C 30.13in /  1020.2hPa ESE 10.0mph /  16.1km/h 13.0mph /  20.9km/h 51% 0.00in /  0mm
14:32 77.2 °F /  25.1 °C 57.7 °F /  14.3 °C 30.13in /  1020.2hPa ESE 8.0mph /  12.9km/h 14.0mph /  22.5km/h 51% 0.00in /  0mm
14:37 77.6 °F /  25.3 °C 57.0 °F /  13.9 °C 30.13in /  1020.2hPa SE 4.0mph /  6.4km/h 10.0mph /  16.1km/h 49% 0.00in /  0mm
14:42 78.0 °F /  25.6 °C 56.2 °F /  13.4 °C 30.13in /  1020.2hPa ESE 8.0mph /  12.9km/h 9.0mph /  14.5km/h 47% 0.00in /  0mm
14:47 77.7 °F /  25.4 °C 58.7 °F /  14.8 °C 30.12in /  1019.9hPa ESE 6.0mph /  9.7km/h 9.0mph /  14.5km/h 52% 0.00in /  0mm
14:52 77.6 °F /  25.3 °C 56.4 °F /  13.6 °C 30.12in /  1019.9hPa ESE 11.0mph /  17.7km/h 12.0mph /  19.3km/h 48% 0.00in /  0mm
14:57 77.7 °F /  25.4 °C 58.2 °F /  14.6 °C 30.12in /  1019.9hPa SSW 7.0mph /  11.3km/h 9.0mph /  14.5km/h 51% 0.00in /  0mm
15:02 77.8 °F /  25.4 °C 58.8 °F /  14.9 °C 30.12in /  1019.9hPa SE 7.0mph /  11.3km/h 9.0mph /  14.5km/h 52% 0.00in /  0mm
15:07 77.9 °F /  25.5 °C 56.7 °F /  13.7 °C 30.11in /  1019.5hPa SE 9.0mph /  14.5km/h 12.0mph /  19.3km/h 48% 0.00in /  0mm
15:12 78.6 °F /  25.9 °C 56.7 °F /  13.7 °C 30.11in /  1019.5hPa SE 7.0mph /  11.3km/h 11.0mph /  17.7km/h 47% 0.00in /  0mm
15:17 78.8 °F /  26 °C 58.0 °F /  14.4 °C 30.11in /  1019.5hPa SE 6.0mph /  9.7km/h 11.0mph /  17.7km/h 49% 0.00in /  0mm
15:22 78.5 °F /  25.8 °C 55.4 °F /  13 °C 30.11in /  1019.5hPa SE 5.0mph /  8km/h 9.0mph /  14.5km/h 45% 0.00in /  0mm
15:27 78.7 °F /  25.9 °C 58.0 °F /  14.4 °C 30.10in /  1019.2hPa South 8.0mph /  12.9km/h 8.0mph /  12.9km/h 49% 0.00in /  0mm
15:32 78.8 °F /  26 °C 58.0 °F /  14.4 °C 30.10in /  1019.2hPa SE 7.0mph /  11.3km/h 11.0mph /  17.7km/h 49% 0.00in /  0mm
15:38 79.1 °F /  26.2 °C 54.1 °F /  12.3 °C 30.10in /  1019.2hPa SSW 3.0mph /  4.8km/h 6.0mph /  9.7km/h 42% 0.00in /  0mm
15:43 78.8 °F /  26 °C 51.1 °F /  10.6 °C 30.10in /  1019.2hPa SSE 7.0mph /  11.3km/h 11.0mph /  17.7km/h 38% 0.00in /  0mm
15:48 78.9 °F /  26.1 °C 54.5 °F /  12.5 °C 30.10in /  1019.2hPa SE 9.0mph /  14.5km/h 13.0mph /  20.9km/h 43% 0.00in /  0mm
15:53 79.1 °F /  26.2 °C 56.6 °F /  13.7 °C 30.09in /  1018.8hPa South 7.0mph /  11.3km/h 10.0mph /  16.1km/h 46% 0.00in /  0mm
15:58 78.9 °F /  26.1 °C 56.4 °F /  13.6 °C 30.10in /  1019.2hPa SE 6.0mph /  9.7km/h 12.0mph /  19.3km/h 46% 0.00in /  0mm
16:03 78.9 °F /  26.1 °C 54.5 °F /  12.5 °C 30.09in /  1018.8hPa SSE 6.0mph /  9.7km/h 6.0mph /  9.7km/h 43% 0.00in /  0mm
16:08 79.3 °F /  26.3 °C 57.3 °F /  14.1 °C 30.09in /  1018.8hPa SSW 4.0mph /  6.4km/h 11.0mph /  17.7km/h 47% 0.00in /  0mm
16:13 79.5 °F /  26.4 °C 55.1 °F /  12.8 °C 30.09in /  1018.8hPa SSE 7.0mph /  11.3km/h 8.0mph /  12.9km/h 43% 0.00in /  0mm
16:18 79.2 °F /  26.2 °C 54.8 °F /  12.7 °C 30.09in /  1018.8hPa SE 3.0mph /  4.8km/h 10.0mph /  16.1km/h 43% 0.00in /  0mm
16:23 78.9 °F /  26.1 °C 56.4 °F /  13.6 °C 30.09in /  1018.8hPa SSE 5.0mph /  8km/h 8.0mph /  12.9km/h 46% 0.00in /  0mm
16:28 78.6 °F /  25.9 °C 54.9 °F /  12.7 °C 30.09in /  1018.8hPa SSW 5.0mph /  8km/h 10.0mph /  16.1km/h 44% 0.00in /  0mm
16:34 78.2 °F /  25.7 °C 51.9 °F /  11.1 °C 30.09in /  1018.8hPa South 5.0mph /  8km/h 8.0mph /  12.9km/h 40% 0.00in /  0mm
16:39 78.3 °F /  25.7 °C 53.3 °F /  11.8 °C 30.09in /  1018.8hPa South 2.0mph /  3.2km/h 6.0mph /  9.7km/h 42% 0.00in /  0mm
16:44 78.5 °F /  25.8 °C 54.2 °F /  12.3 °C 30.09in /  1018.8hPa South 6.0mph /  9.7km/h 9.0mph /  14.5km/h 43% 0.00in /  0mm
16:49 79.0 °F /  26.1 °C 54.6 °F /  12.6 °C 30.08in /  1018.5hPa SW 6.0mph /  9.7km/h 12.0mph /  19.3km/h 43% 0.00in /  0mm
16:54 79.5 °F /  26.4 °C 54.4 °F /  12.4 °C 30.09in /  1018.8hPa SSE 7.0mph /  11.3km/h 11.0mph /  17.7km/h 42% 0.00in /  0mm
16:59 79.7 °F /  26.5 °C 55.9 °F /  13.3 °C 30.08in /  1018.5hPa South 5.0mph /  8km/h 11.0mph /  17.7km/h 44% 0.00in /  0mm
17:04 80.1 °F /  26.7 °C 54.3 °F /  12.4 °C 30.08in /  1018.5hPa SSE 4.0mph /  6.4km/h 8.0mph /  12.9km/h 41% 0.00in /  0mm
17:09 80.4 °F /  26.9 °C 54.6 °F /  12.6 °C 30.08in /  1018.5hPa South 5.0mph /  8km/h 5.0mph /  8km/h 41% 0.00in /  0mm
17:14 80.7 °F /  27.1 °C 53.5 °F /  11.9 °C 30.08in /  1018.5hPa South 4.0mph /  6.4km/h 10.0mph /  16.1km/h 39% 0.00in /  0mm
17:19 80.0 °F /  26.7 °C 54.9 °F /  12.7 °C 30.08in /  1018.5hPa SSE 6.0mph /  9.7km/h 10.0mph /  16.1km/h 42% 0.00in /  0mm
17:24 79.2 °F /  26.2 °C 55.4 °F /  13 °C 30.08in /  1018.5hPa SSE 5.0mph /  8km/h 7.0mph /  11.3km/h 44% 0.00in /  0mm
17:29 78.8 °F /  26 °C 54.4 °F /  12.4 °C 30.07in /  1018.2hPa SW 3.0mph /  4.8km/h 6.0mph /  9.7km/h 43% 0.00in /  0mm
17:34 79.0 °F /  26.1 °C 52.6 °F /  11.4 °C 30.07in /  1018.2hPa SSE 4.0mph /  6.4km/h 9.0mph /  14.5km/h 40% 0.00in /  0mm
17:39 79.1 °F /  26.2 °C 52.7 °F /  11.5 °C 30.07in /  1018.2hPa SE 4.0mph /  6.4km/h 9.0mph /  14.5km/h 40% 0.00in /  0mm
17:44 79.5 °F /  26.4 °C 53.8 °F /  12.1 °C 30.07in /  1018.2hPa SSW 3.0mph /  4.8km/h 8.0mph /  12.9km/h 41% 0.00in /  0mm
17:49 79.8 °F /  26.6 °C 54.7 °F /  12.6 °C 30.07in /  1018.2hPa SE 7.0mph /  11.3km/h 9.0mph /  14.5km/h 42% 0.00in /  0mm
17:54 79.6 °F /  26.4 °C 55.2 °F /  12.9 °C 30.07in /  1018.2hPa SE 7.0mph /  11.3km/h 7.0mph /  11.3km/h 43% 0.00in /  0mm
17:59 79.4 °F /  26.3 °C 54.3 °F /  12.4 °C 30.07in /  1018.2hPa SSE 3.0mph /  4.8km/h 9.0mph /  14.5km/h 42% 0.00in /  0mm
18:04 78.9 °F /  26.1 °C 53.9 °F /  12.2 °C 30.07in /  1018.2hPa SE 4.0mph /  6.4km/h 9.0mph /  14.5km/h 42% 0.00in /  0mm
18:09 78.4 °F /  25.8 °C 55.3 °F /  12.9 °C 30.07in /  1018.2hPa SSE 8.0mph /  12.9km/h 9.0mph /  14.5km/h 45% 0.00in /  0mm
18:14 77.8 °F /  25.4 °C 54.2 °F /  12.3 °C 30.07in /  1018.2hPa South 3.0mph /  4.8km/h 13.0mph /  20.9km/h 44% 0.00in /  0mm
18:19 77.7 °F /  25.4 °C 54.7 °F /  12.6 °C 30.07in /  1018.2hPa SSE 6.0mph /  9.7km/h 8.0mph /  12.9km/h 45% 0.00in /  0mm
18:24 77.4 °F /  25.2 °C 54.4 °F /  12.4 °C 30.07in /  1018.2hPa SSE 6.0mph /  9.7km/h 8.0mph /  12.9km/h 45% 0.00in /  0mm
18:29 77.2 °F /  25.1 °C 54.2 °F /  12.3 °C 30.07in /  1018.2hPa SSE 6.0mph /  9.7km/h 8.0mph /  12.9km/h 45% 0.00in /  0mm
18:34 76.9 °F /  24.9 °C 53.3 °F /  11.8 °C 30.07in /  1018.2hPa SE 8.0mph /  12.9km/h 8.0mph /  12.9km/h 44% 0.00in /  0mm
18:39 76.9 °F /  24.9 °C 54.0 °F /  12.2 °C 30.07in /  1018.2hPa SSE 5.0mph /  8km/h 9.0mph /  14.5km/h 45% 0.00in /  0mm
18:44 76.5 °F /  24.7 °C 54.8 °F /  12.7 °C 30.06in /  1017.8hPa South 5.0mph /  8km/h 5.0mph /  8km/h 47% 0.00in /  0mm
18:49 76.2 °F /  24.6 °C 55.7 °F /  13.2 °C 30.06in /  1017.8hPa SE 3.0mph /  4.8km/h 6.0mph /  9.7km/h 49% 0.00in /  0mm
18:54 76.1 °F /  24.5 °C 53.8 °F /  12.1 °C 30.06in /  1017.8hPa SSE 5.0mph /  8km/h 9.0mph /  14.5km/h 46% 0.00in /  0mm
18:59 76.0 °F /  24.4 °C 54.3 °F /  12.4 °C 30.06in /  1017.8hPa SSE 3.0mph /  4.8km/h 6.0mph /  9.7km/h 47% 0.00in /  0mm
19:04 75.5 °F /  24.2 °C 55.0 °F /  12.8 °C 30.06in /  1017.8hPa SSE 3.0mph /  4.8km/h 3.0mph /  4.8km/h 49% 0.00in /  0mm
19:09 75.3 °F /  24.1 °C 54.3 °F /  12.4 °C 30.06in /  1017.8hPa SSE 2.0mph /  3.2km/h 4.0mph /  6.4km/h 48% 0.00in /  0mm
19:15 75.4 °F /  24.1 °C 54.4 °F /  12.4 °C 30.06in /  1017.8hPa SE 3.0mph /  4.8km/h 4.0mph /  6.4km/h 48% 0.00in /  0mm
19:20 75.8 °F /  24.3 °C 53.6 °F /  12 °C 30.06in /  1017.8hPa SE 3.0mph /  4.8km/h 3.0mph /  4.8km/h 46% 0.00in /  0mm
19:25 76.0 °F /  24.4 °C 54.3 °F /  12.4 °C 30.06in /  1017.8hPa SE 4.0mph /  6.4km/h 4.0mph /  6.4km/h 47% 0.00in /  0mm
19:30 76.0 °F /  24.4 °C 54.3 °F /  12.4 °C 30.06in /  1017.8hPa SE 3.0mph /  4.8km/h 4.0mph /  6.4km/h 47% 0.00in /  0mm
19:35 75.9 °F /  24.4 °C 54.2 °F /  12.3 °C 30.06in /  1017.8hPa SE 2.0mph /  3.2km/h 4.0mph /  6.4km/h 47% 0.00in /  0mm
19:40 75.9 °F /  24.4 °C 53.7 °F /  12.1 °C 30.06in /  1017.8hPa ESE 3.0mph /  4.8km/h 4.0mph /  6.4km/h 46% 0.00in /  0mm
19:45 75.7 °F /  24.3 °C 54.1 °F /  12.3 °C 30.06in /  1017.8hPa SE 2.0mph /  3.2km/h 3.0mph /  4.8km/h 47% 0.00in /  0mm
19:50 75.2 °F /  24 °C 53.6 °F /  12 °C 30.07in /  1018.2hPa SE 2.0mph /  3.2km/h 3.0mph /  4.8km/h 47% 0.00in /  0mm
19:55 75.1 °F /  23.9 °C 53.5 °F /  11.9 °C 30.07in /  1018.2hPa ESE 2.0mph /  3.2km/h 3.0mph /  4.8km/h 47% 0.00in /  0mm
20:00 74.9 °F /  23.8 °C 53.3 °F /  11.8 °C 30.06in /  1017.8hPa ESE 3.0mph /  4.8km/h 4.0mph /  6.4km/h 47% 0.00in /  0mm
20:05 74.4 °F /  23.6 °C 53.5 °F /  11.9 °C 30.06in /  1017.8hPa ESE 2.0mph /  3.2km/h 3.0mph /  4.8km/h 48% 0.00in /  0mm
20:10 73.9 °F /  23.3 °C 53.6 °F /  12 °C 30.06in /  1017.8hPa ESE 3.0mph /  4.8km/h 4.0mph /  6.4km/h 49% 0.00in /  0mm
20:15 73.8 °F /  23.2 °C 52.9 °F /  11.6 °C 30.06in /  1017.8hPa ESE 2.0mph /  3.2km/h 3.0mph /  4.8km/h 48% 0.00in /  0mm
20:20 73.7 °F /  23.2 °C 52.8 °F /  11.6 °C 30.06in /  1017.8hPa SE 2.0mph /  3.2km/h 3.0mph /  4.8km/h 48% 0.00in /  0mm
20:25 73.4 °F /  23 °C 53.1 °F /  11.7 °C 30.07in /  1018.2hPa ESE 2.0mph /  3.2km/h 3.0mph /  4.8km/h 49% 0.00in /  0mm
20:30 73.0 °F /  22.8 °C 52.7 °F /  11.5 °C 30.06in /  1017.8hPa ESE 2.0mph /  3.2km/h 3.0mph /  4.8km/h 49% 0.00in /  0mm
20:35 72.4 °F /  22.4 °C 52.7 °F /  11.5 °C 30.07in /  1018.2hPa ESE 3.0mph /  4.8km/h 3.0mph /  4.8km/h 50% 0.00in /  0mm
20:40 72.4 °F /  22.4 °C 52.2 °F /  11.2 °C 30.06in /  1017.8hPa SE 4.0mph /  6.4km/h 4.0mph /  6.4km/h 49% 0.00in /  0mm
20:46 72.5 °F /  22.5 °C 51.7 °F /  10.9 °C 30.07in /  1018.2hPa SE 3.0mph /  4.8km/h 5.0mph /  8km/h 48% 0.00in /  0mm
20:51 72.6 °F /  22.6 °C 51.8 °F /  11 °C 30.07in /  1018.2hPa ESE 4.0mph /  6.4km/h 4.0mph /  6.4km/h 48% 0.00in /  0mm
20:56 72.4 °F /  22.4 °C 51.6 °F /  10.9 °C 30.07in /  1018.2hPa SE 3.0mph /  4.8km/h 4.0mph /  6.4km/h 48% 0.00in /  0mm
21:01 72.4 °F /  22.4 °C 51.0 °F /  10.6 °C 30.07in /  1018.2hPa ESE 4.0mph /  6.4km/h 4.0mph /  6.4km/h 47% 0.00in /  0mm
21:06 72.4 °F /  22.4 °C 51.0 °F /  10.6 °C 30.07in /  1018.2hPa SE 3.0mph /  4.8km/h 4.0mph /  6.4km/h 47% 0.00in /  0mm
21:11 72.1 °F /  22.3 °C 51.3 °F /  10.7 °C 30.07in /  1018.2hPa ESE 4.0mph /  6.4km/h 4.0mph /  6.4km/h 48% 0.00in /  0mm
21:16 71.9 °F /  22.2 °C 51.2 °F /  10.7 °C 30.07in /  1018.2hPa ESE 3.0mph /  4.8km/h 4.0mph /  6.4km/h 48% 0.00in /  0mm
21:21 71.6 °F /  22 °C 50.9 °F /  10.5 °C 30.07in /  1018.2hPa ESE 3.0mph /  4.8km/h 4.0mph /  6.4km/h 48% 0.00in /  0mm
21:26 71.5 °F /  21.9 °C 50.8 °F /  10.4 °C 30.07in /  1018.2hPa ESE 3.0mph /  4.8km/h 4.0mph /  6.4km/h 48% 0.00in /  0mm
21:31 71.4 °F /  21.9 °C 50.7 °F /  10.4 °C 30.07in /  1018.2hPa ESE 3.0mph /  4.8km/h 4.0mph /  6.4km/h 48% 0.00in /  0mm
21:36 71.0 °F /  21.7 °C 50.9 °F /  10.5 °C 30.07in /  1018.2hPa ESE 3.0mph /  4.8km/h 4.0mph /  6.4km/h 49% 0.00in /  0mm
21:41 70.7 °F /  21.5 °C 50.6 °F /  10.3 °C 30.07in /  1018.2hPa ESE 3.0mph /  4.8km/h 4.0mph /  6.4km/h 49% 0.00in /  0mm
21:46 70.7 °F /  21.5 °C 50.6 °F /  10.3 °C 30.07in /  1018.2hPa ESE 3.0mph /  4.8km/h 4.0mph /  6.4km/h 49% 0.00in /  0mm
21:51 70.5 °F /  21.4 °C 50.4 °F /  10.2 °C 30.07in /  1018.2hPa ESE 3.0mph /  4.8km/h 3.0mph /  4.8km/h 49% 0.00in /  0mm
21:56 70.6 °F /  21.4 °C 50.5 °F /  10.3 °C 30.07in /  1018.2hPa SE 2.0mph /  3.2km/h 5.0mph /  8km/h 49% 0.00in /  0mm
22:01 70.7 °F /  21.5 °C 50.6 °F /  10.3 °C 30.07in /  1018.2hPa SE 4.0mph /  6.4km/h 4.0mph /  6.4km/h 49% 0.00in /  0mm
22:06 70.7 °F /  21.5 °C 50.6 °F /  10.3 °C 30.07in /  1018.2hPa SE 3.0mph /  4.8km/h 4.0mph /  6.4km/h 49% 0.00in /  0mm
22:11 70.4 °F /  21.3 °C 51.4 °F /  10.8 °C 30.08in /  1018.5hPa ESE 3.0mph /  4.8km/h 5.0mph /  8km/h 51% 0.00in /  0mm
22:16 70.1 °F /  21.2 °C 51.2 °F /  10.7 °C 30.08in /  1018.5hPa SE 3.0mph /  4.8km/h 5.0mph /  8km/h 51% 0.00in /  0mm
22:21 69.7 °F /  20.9 °C 51.3 °F /  10.7 °C 30.08in /  1018.5hPa SE 2.0mph /  3.2km/h 5.0mph /  8km/h 52% 0.00in /  0mm
22:26 68.8 °F /  20.4 °C 51.0 °F /  10.6 °C 30.08in /  1018.5hPa SSE 2.0mph /  3.2km/h 3.0mph /  4.8km/h 53% 0.00in /  0mm
22:31 68.5 °F /  20.3 °C 51.2 °F /  10.7 °C 30.08in /  1018.5hPa SE 3.0mph /  4.8km/h 4.0mph /  6.4km/h 54% 0.00in /  0mm
22:36 68.3 °F /  20.2 °C 51.5 °F /  10.8 °C 30.08in /  1018.5hPa SE 1.0mph /  1.6km/h 2.0mph /  3.2km/h 55% 0.00in /  0mm
22:41 67.9 °F /  19.9 °C 51.6 °F /  10.9 °C 30.08in /  1018.5hPa South 1.0mph /  1.6km/h 3.0mph /  4.8km/h 56% 0.00in /  0mm
22:46 68.0 °F /  20 °C 50.8 °F /  10.4 °C 30.08in /  1018.5hPa South 2.0mph /  3.2km/h 3.0mph /  4.8km/h 54% 0.00in /  0mm
22:51 68.1 °F /  20.1 °C 50.8 °F /  10.4 °C 30.08in /  1018.5hPa SSW 2.0mph /  3.2km/h 2.0mph /  3.2km/h 54% 0.00in /  0mm
22:56 67.9 °F /  19.9 °C 51.2 °F /  10.7 °C 30.08in /  1018.5hPa SSW 1.0mph /  1.6km/h 3.0mph /  4.8km/h 55% 0.00in /  0mm
23:01 67.8 °F /  19.9 °C 51.1 °F /  10.6 °C 30.08in /  1018.5hPa SE 4.0mph /  6.4km/h 4.0mph /  6.4km/h 55% 0.00in /  0mm
23:06 67.8 °F /  19.9 °C 51.1 °F /  10.6 °C 30.08in /  1018.5hPa South 3.0mph /  4.8km/h 3.0mph /  4.8km/h 55% 0.00in /  0mm
23:11 67.9 °F /  19.9 °C 51.2 °F /  10.7 °C 30.08in /  1018.5hPa South 2.0mph /  3.2km/h 4.0mph /  6.4km/h 55% 0.00in /  0mm
23:16 67.7 °F /  19.8 °C 51.5 °F /  10.8 °C 30.08in /  1018.5hPa SSE 3.0mph /  4.8km/h 4.0mph /  6.4km/h 56% 0.00in /  0mm
23:21 66.9 °F /  19.4 °C 51.7 °F /  10.9 °C 30.08in /  1018.5hPa SE 1.0mph /  1.6km/h 2.0mph /  3.2km/h 58% 0.00in /  0mm
23:26 66.2 °F /  19 °C 51.5 °F /  10.8 °C 30.09in /  1018.8hPa SSE 2.0mph /  3.2km/h 2.0mph /  3.2km/h 59% 0.00in /  0mm
23:31 66.0 °F /  18.9 °C 51.3 °F /  10.7 °C 30.09in /  1018.8hPa SE 2.0mph /  3.2km/h 3.0mph /  4.8km/h 59% 0.00in /  0mm
23:36 65.7 °F /  18.7 °C 51.5 °F /  10.8 °C 30.08in /  1018.5hPa SSE 2.0mph /  3.2km/h 2.0mph /  3.2km/h 60% 0.00in /  0mm
23:41 65.4 °F /  18.6 °C 51.2 °F /  10.7 °C 30.09in /  1018.8hPa SE 3.0mph /  4.8km/h 3.0mph /  4.8km/h 60% 0.00in /  0mm
23:46 65.7 °F /  18.7 °C 51.5 °F /  10.8 °C 30.08in /  1018.5hPa SE 2.0mph /  3.2km/h 3.0mph /  4.8km/h 60% 0.00in /  0mm
23:51 66.1 °F /  18.9 °C 50.9 °F /  10.5 °C 30.08in /  1018.5hPa SSE 4.0mph /  6.4km/h 4.0mph /  6.4km/h 58% 0.00in /  0mm
23:56 66.4 °F /  19.1 °C 51.2 °F /  10.7 °C 30.08in /  1018.5hPa SE 3.0mph /  4.8km/h 3.0mph /  4.8km/h 58% 0.00in /  0mm
Compliments of Weather Underground